Time;durP1;ratioP1;P1;durP2;ratioP2;P2;SDS_P1;SDS_P2;PMS_P1;PMS_P2;Temp;Humidity;BMP_temperature;BMP_pressure;BME280_temperature;BME280_humidity;BME280_pressure;Samples;Min_cycle;Max_cycle;Signal;HPM_P1;HPM_P2
2022/11/07 00:02:17;;;;;;;7.40;5.18;;;11.10;81.00;;;;;;5076517;28;20101;-76
2022/11/07 00:04:43;;;;;;;10.30;5.40;;;11.20;81.00;;;;;;5072751;28;20049;-77
2022/11/07 00:07:09;;;;;;;9.88;5.00;;;11.20;81.10;;;;;;5074581;28;20038;-71
2022/11/07 00:09:35;;;;;;;10.23;5.35;;;11.20;81.00;;;;;;5058655;28;20472;-71
2022/11/07 00:12:01;;;;;;;8.95;5.05;;;11.20;81.00;;;;;;5069928;28;20040;-76
2022/11/07 00:14:27;;;;;;;7.82;4.68;;;11.20;80.90;;;;;;5075906;28;20089;-76
2022/11/07 00:16:52;;;;;;;9.43;4.93;;;11.30;80.90;;;;;;5042554;28;20395;-77
2022/11/07 00:19:20;;;;;;;8.20;4.60;;;11.30;80.90;;;;;;5072207;28;20130;-76
2022/11/07 00:21:47;;;;;;;8.13;4.35;;;11.30;80.90;;;;;;5060593;28;20373;-76
2022/11/07 00:24:16;;;;;;;10.50;5.15;;;11.30;80.80;;;;;;5050347;28;20040;-76
2022/11/07 00:26:42;;;;;;;9.88;4.70;;;11.30;80.70;;;;;;5061168;28;20094;-76
2022/11/07 00:29:12;;;;;;;5.40;4.07;;;11.30;80.70;;;;;;5075632;28;20492;-76
2022/11/07 00:31:38;;;;;;;13.25;5.30;;;11.40;80.70;;;;;;5075367;28;20127;-70
2022/11/07 00:34:03;;;;;;;12.38;5.10;;;11.40;80.60;;;;;;5055008;28;20060;-71
2022/11/07 00:36:29;;;;;;;9.48;5.88;;;11.40;80.60;;;;;;5050658;28;20036;-71
2022/11/07 00:38:55;;;;;;;9.23;4.82;;;11.40;80.60;;;;;;5057832;28;20491;-71
2022/11/07 00:41:22;;;;;;;13.38;5.10;;;11.40;80.50;;;;;;5058443;28;20036;-71
2022/11/07 00:43:47;;;;;;;8.05;4.60;;;11.40;80.50;;;;;;5058200;28;20047;-71
2022/11/07 00:46:15;;;;;;;11.00;4.70;;;11.40;80.40;;;;;;5075067;28;20513;-70
2022/11/07 00:48:41;;;;;;;10.90;4.85;;;11.40;80.40;;;;;;5039104;28;20044;-70
2022/11/07 00:51:08;;;;;;;8.43;4.25;;;11.40;80.30;;;;;;5073683;28;20043;-70
2022/11/07 00:53:34;;;;;;;9.15;4.32;;;11.40;80.20;;;;;;5074754;28;20166;-71
2022/11/07 00:56:06;;;;;;;8.68;4.43;;;11.40;80.20;;;;;;5075044;28;20111;-71
2022/11/07 00:58:32;;;;;;;10.13;4.65;;;11.40;80.20;;;;;;5041783;28;20051;-71
2022/11/07 01:00:59;;;;;;;12.73;5.00;;;11.40;80.10;;;;;;5057459;28;20035;-71
2022/11/07 01:06:09;;;;;;;;;;;11.40;80.10;;;;;;5073361;28;20040;-71
2022/11/07 01:08:35;;;;;;;10.88;4.70;;;11.40;80.00;;;;;;5074849;28;19915;-71
2022/11/07 01:11:06;;;;;;;7.70;4.03;;;11.40;80.20;;;;;;5060506;28;20041;-71
2022/11/07 01:13:32;;;;;;;8.07;3.83;;;11.40;80.20;;;;;;5074575;28;20063;-71
2022/11/07 01:15:58;;;;;;;9.90;4.03;;;11.40;80.10;;;;;;5057946;28;20048;-70
2022/11/07 01:18:24;;;;;;;9.20;4.30;;;11.40;80.10;;;;;;5074371;28;20032;-70
2022/11/07 01:20:49;;;;;;;8.32;3.72;;;11.40;80.10;;;;;;5074071;28;20059;-70
2022/11/07 01:23:16;;;;;;;11.82;4.15;;;11.40;80.10;;;;;;5073142;28;20458;-71
2022/11/07 01:25:42;;;;;;;9.20;3.72;;;11.40;80.10;;;;;;5074261;28;20032;-71
2022/11/07 01:28:08;;;;;;;12.52;4.63;;;11.40;80.20;;;;;;5057986;28;20065;-71
2022/11/07 01:30:38;;;;;;;9.23;4.15;;;11.40;80.20;;;;;;5074374;28;20411;-71
2022/11/07 01:33:04;;;;;;;12.63;4.05;;;11.40;80.20;;;;;;5056917;28;20068;-71
2022/11/07 01:35:31;;;;;;;10.30;4.63;;;11.40;80.20;;;;;;5073806;28;20503;-71
2022/11/07 01:37:57;;;;;;;7.85;3.72;;;11.50;80.20;;;;;;5057613;28;20036;-70
2022/11/07 01:40:23;;;;;;;11.27;4.35;;;11.50;80.30;;;;;;5073988;28;20051;-71
2022/11/07 01:42:49;;;;;;;8.63;3.55;;;11.50;80.30;;;;;;5058880;28;20063;-71
2022/11/07 01:45:36;;;;;;;10.52;4.00;;;11.50;80.30;;;;;;5068730;28;20036;-71
2022/11/07 01:48:02;;;;;;;12.25;3.78;;;11.50;80.20;;;;;;5091148;28;20047;-71
2022/11/07 01:50:29;;;;;;;6.90;3.92;;;11.50;80.30;;;;;;5060510;28;20040;-71
2022/11/07 01:52:55;;;;;;;8.57;3.72;;;11.50;80.00;;;;;;5078025;28;20078;-71
2022/11/07 01:55:41;;;;;;;7.22;3.63;;;11.50;80.20;;;;;;5077954;28;20036;-71
2022/11/07 01:58:08;;;;;;;11.02;3.40;;;11.60;80.20;;;;;;5094338;28;20060;-71
2022/11/07 02:00:35;;;;;;;11.60;4.50;;;11.60;80.30;;;;;;5078022;28;20036;-71
2022/11/07 02:03:06;;;;;;;10.23;3.83;;;11.60;80.30;;;;;;5077676;28;20048;-71
2022/11/07 02:05:39;;;;;;;8.40;4.20;;;11.60;80.20;;;;;;5077938;28;20044;-71
2022/11/07 02:08:07;;;;;;;10.48;4.43;;;11.60;80.20;;;;;;5068340;28;20120;-71
2022/11/07 02:10:38;;;;;;;9.38;4.25;;;11.60;80.20;;;;;;5077857;28;20040;-71
2022/11/07 02:13:05;;;;;;;8.55;3.13;;;11.60;80.10;;;;;;5072817;28;20367;-71
2022/11/07 02:15:35;;;;;;;10.60;3.80;;;11.70;80.10;;;;;;5094974;28;20484;-70
2022/11/07 02:18:01;;;;;;;12.20;4.05;;;11.60;80.00;;;;;;5094666;28;20097;-70
2022/11/07 02:20:27;;;;;;;6.10;3.08;;;11.60;80.00;;;;;;5077495;28;20052;-71
2022/11/07 02:23:07;;;;;;;10.27;3.60;;;11.70;80.00;;;;;;5080261;28;20044;-71
2022/11/07 02:25:33;;;;;;;10.50;3.80;;;11.70;79.80;;;;;;5076703;28;20040;-71
2022/11/07 02:28:02;;;;;;;11.30;3.97;;;11.70;79.90;;;;;;5075642;28;20043;-71
2022/11/07 02:30:32;;;;;;;11.73;4.00;;;11.70;79.80;;;;;;5065044;28;20112;-71
2022/11/07 02:32:58;;;;;;;10.32;3.70;;;11.70;79.80;;;;;;5075712;28;20062;-71
2022/11/07 02:35:42;;;;;;;6.57;3.00;;;11.70;79.80;;;;;;5057484;28;20053;-71
2022/11/07 02:38:16;;;;;;;12.35;3.72;;;11.70;79.80;;;;;;5060602;28;20039;-71
2022/11/07 02:40:54;;;;;;;9.52;3.30;;;11.70;79.80;;;;;;5060426;28;20047;-71
2022/11/07 02:43:24;;;;;;;11.68;3.40;;;11.80;79.90;;;;;;5056030;28;20032;-72
2022/11/07 02:45:50;;;;;;;9.45;3.53;;;11.70;79.80;;;;;;5077049;28;20047;-71
2022/11/07 02:48:16;;;;;;;8.73;3.10;;;11.80;79.90;;;;;;5073886;28;20521;-71
2022/11/07 02:50:43;;;;;;;9.52;3.47;;;11.80;79.80;;;;;;5032996;28;20080;-71
2022/11/07 02:53:08;;;;;;;11.70;3.95;;;11.70;79.80;;;;;;5077278;28;20180;-71
2022/11/07 02:55:34;;;;;;;9.65;3.42;;;11.80;79.80;;;;;;5068395;28;20519;-71
2022/11/07 02:58:00;;;;;;;8.60;3.28;;;11.80;79.80;;;;;;5076844;28;20111;-71
2022/11/07 03:00:25;;;;;;;13.00;3.38;;;11.80;79.80;;;;;;5076873;28;20036;-71
2022/11/07 03:02:51;;;;;;;6.90;2.65;;;11.80;79.90;;;;;;5057153;28;20075;-71
2022/11/07 03:05:18;;;;;;;9.15;3.45;;;11.80;79.90;;;;;;5059975;28;20048;-71
2022/11/07 03:07:46;;;;;;;9.88;4.30;;;11.80;80.00;;;;;;5076816;28;20534;-71
2022/11/07 03:10:14;;;;;;;8.75;3.13;;;11.80;80.00;;;;;;5061294;28;20470;-71
2022/11/07 03:12:39;;;;;;;11.88;3.80;;;11.80;80.10;;;;;;5076444;28;20040;-71
2022/11/07 03:15:07;;;;;;;11.10;3.90;;;11.80;80.00;;;;;;5076549;28;20043;-71
2022/11/07 03:17:33;;;;;;;8.73;3.10;;;11.70;79.90;;;;;;5076107;28;20077;-71
2022/11/07 03:19:58;;;;;;;10.10;2.90;;;11.70;79.90;;;;;;5076655;28;20052;-77
2022/11/07 03:22:24;;;;;;;10.55;3.72;;;11.70;79.90;;;;;;5060337;28;20116;-77
2022/11/07 03:24:50;;;;;;;13.32;4.07;;;11.70;79.80;;;;;;5056789;28;20431;-77
2022/11/07 03:27:15;;;;;;;7.18;3.05;;;11.70;79.80;;;;;;5059137;28;20381;-77
2022/11/07 03:29:41;;;;;;;10.52;3.58;;;11.70;79.80;;;;;;5093772;28;20048;-77
2022/11/07 03:32:07;;;;;;;7.88;2.70;;;11.70;79.80;;;;;;5076254;28;20101;-77
2022/11/07 03:34:33;;;;;;;11.00;3.28;;;11.60;79.70;;;;;;5074695;28;20399;-71
2022/11/07 03:36:58;;;;;;;9.75;4.05;;;11.60;79.70;;;;;;5073032;28;20032;-71
2022/11/07 03:39:24;;;;;;;11.75;3.75;;;11.60;79.80;;;;;;5075571;28;20040;-71
2022/11/07 03:41:50;;;;;;;10.75;3.33;;;11.60;79.80;;;;;;5072808;28;20377;-70
2022/11/07 03:44:16;;;;;;;11.35;3.42;;;11.60;79.90;;;;;;5076202;28;20059;-71
2022/11/07 03:46:41;;;;;;;13.15;4.15;;;11.60;79.90;;;;;;5075966;28;20472;-71
2022/11/07 03:49:07;;;;;;;12.68;4.22;;;11.60;80.00;;;;;;5059271;28;20043;-70
2022/11/07 03:51:33;;;;;;;8.90;3.28;;;11.50;80.00;;;;;;5075359;28;20047;-70
2022/11/07 03:53:58;;;;;;;11.88;3.72;;;11.60;80.00;;;;;;5069996;28;20142;-71
2022/11/07 03:56:24;;;;;;;7.00;3.30;;;11.50;80.00;;;;;;5056220;28;20063;-70
2022/11/07 03:58:50;;;;;;;9.30;3.67;;;11.50;80.10;;;;;;5066761;28;20036;-71
2022/11/07 04:01:16;;;;;;;9.80;4.15;;;11.50;80.10;;;;;;5058769;28;20114;-71
2022/11/07 04:03:42;;;;;;;9.98;3.60;;;11.50;80.20;;;;;;5074972;28;20036;-71
2022/11/07 04:06:07;;;;;;;9.32;3.60;;;11.50;80.20;;;;;;5058635;28;20036;-71
2022/11/07 04:08:34;;;;;;;11.73;3.65;;;11.50;80.30;;;;;;5075574;28;20058;-71
2022/11/07 04:10:59;;;;;;;11.05;4.30;;;11.50;80.40;;;;;;5075066;28;20040;-70
2022/11/07 04:18:54;;;;;;;;;;;11.50;80.50;;;;;;5075718;28;20482;-72
2022/11/07 04:21:21;;;;;;;13.95;4.93;;;11.50;80.40;;;;;;5075874;28;20263;-71
2022/11/07 04:23:46;;;;;;;15.60;3.88;;;11.50;80.60;;;;;;5073230;28;20035;-70
2022/11/07 04:28:56;;;;;;;9.93;3.55;;;11.50;80.60;;;;;;5075722;28;20415;-71
2022/11/07 04:31:21;;;;;;;8.00;4.07;;;11.50;80.60;;;;;;5074798;28;20047;-76
2022/11/07 04:33:47;;;;;;;8.07;4.13;;;11.50;80.60;;;;;;5075788;28;20051;-76
2022/11/07 04:36:13;;;;;;;11.07;4.43;;;11.50;80.60;;;;;;5075799;28;20521;-76
2022/11/07 04:38:39;;;;;;;9.15;4.70;;;11.50;80.60;;;;;;5059213;28;20028;-77
2022/11/07 04:41:04;;;;;;;11.80;4.18;;;11.50;80.60;;;;;;5070965;28;20086;-77
2022/11/07 04:43:30;;;;;;;9.55;3.70;;;11.50;80.60;;;;;;5058983;28;20479;-75
2022/11/07 04:45:56;;;;;;;7.97;4.20;;;11.50;80.60;;;;;;5058206;28;20475;-76
2022/11/07 04:48:22;;;;;;;10.65;4.20;;;11.50;80.60;;;;;;5075424;28;20039;-77
2022/11/07 04:50:48;;;;;;;11.43;4.43;;;11.50;80.60;;;;;;5058588;28;20437;-71
2022/11/07 04:53:16;;;;;;;9.10;4.15;;;11.50;80.60;;;;;;5074779;28;20047;-70
2022/11/07 04:55:42;;;;;;;12.65;4.75;;;11.50;81.00;;;;;;5081964;28;20068;-71
2022/11/07 04:58:08;;;;;;;12.60;4.68;;;11.50;80.50;;;;;;5060730;28;20119;-71
2022/11/07 05:00:34;;;;;;;10.38;4.03;;;11.50;80.40;;;;;;5056214;28;20036;-70
2022/11/07 05:03:00;;;;;;;9.48;4.30;;;11.40;80.30;;;;;;5053346;28;20055;-70
2022/11/07 05:05:26;;;;;;;10.40;4.88;;;11.40;80.30;;;;;;5071237;28;20491;-71
2022/11/07 05:07:51;;;;;;;12.95;5.38;;;11.40;80.30;;;;;;5066624;28;20129;-71
2022/11/07 05:10:24;;;;;;;13.18;4.78;;;11.40;80.30;;;;;;5074850;28;20044;-76
2022/11/07 05:12:50;;;;;;;14.38;4.75;;;11.50;80.40;;;;;;5075161;28;20048;-76
2022/11/07 05:15:16;;;;;;;13.40;4.32;;;11.40;80.40;;;;;;5054872;28;20487;-76
2022/11/07 05:17:42;;;;;;;10.95;4.60;;;11.40;80.40;;;;;;5051282;28;20035;-76
2022/11/07 05:20:30;;;;;;;8.32;3.67;;;11.40;80.40;;;;;;5058157;28;20060;-76
2022/11/07 05:23:11;;;;;;;8.13;3.65;;;11.40;80.40;;;;;;5058357;28;20130;-77
2022/11/07 05:25:51;;;;;;;13.10;4.07;;;11.40;80.30;;;;;;5074776;28;20043;-77
2022/11/07 05:28:19;;;;;;;12.48;4.13;;;11.40;80.70;;;;;;5064033;28;20090;-77
2022/11/07 05:30:45;;;;;;;10.90;4.28;;;11.40;80.30;;;;;;5060376;28;20127;-77
2022/11/07 05:33:13;;;;;;;7.45;3.50;;;11.40;80.30;;;;;;5059942;28;20036;-77
2022/11/07 05:35:38;;;;;;;10.13;3.70;;;11.30;80.40;;;;;;5071507;28;20086;-77
2022/11/07 05:38:04;;;;;;;10.63;4.30;;;11.30;80.30;;;;;;5053594;28;20442;-72
2022/11/07 05:40:30;;;;;;;12.20;4.25;;;11.30;80.40;;;;;;5074049;28;20060;-71
2022/11/07 05:43:04;;;;;;;7.95;3.45;;;11.30;80.40;;;;;;5051858;28;20043;-71
2022/11/07 05:45:30;;;;;;;12.40;4.00;;;11.40;80.50;;;;;;5073809;28;20044;-71
2022/11/07 05:48:01;;;;;;;8.45;2.95;;;11.30;80.50;;;;;;5074212;28;20073;-71
2022/11/07 05:50:28;;;;;;;10.75;4.75;;;11.30;80.50;;;;;;5037671;28;20060;-71
2022/11/07 05:52:54;;;;;;;9.23;4.30;;;11.30;80.50;;;;;;5074456;28;20044;-71
2022/11/07 05:55:20;;;;;;;12.45;4.43;;;11.30;80.50;;;;;;5074569;28;20040;-70
2022/11/07 05:57:46;;;;;;;8.05;3.50;;;11.40;80.60;;;;;;5074060;28;20387;-70
2022/11/07 06:00:12;;;;;;;9.57;3.63;;;11.40;80.60;;;;;;5073546;28;20028;-70
2022/11/07 06:02:38;;;;;;;11.27;4.15;;;11.30;80.60;;;;;;5057166;28;20046;-70
2022/11/07 06:05:04;;;;;;;10.95;4.80;;;11.40;80.70;;;;;;5073477;28;20040;-70
2022/11/07 06:07:33;;;;;;;10.65;4.07;;;11.40;80.80;;;;;;5057385;28;20042;-71
2022/11/07 06:09:59;;;;;;;14.23;4.40;;;11.40;80.90;;;;;;5057531;28;20089;-71
2022/11/07 06:12:25;;;;;;;13.15;4.60;;;11.40;81.00;;;;;;5057376;28;20040;-71
2022/11/07 06:14:50;;;;;;;10.98;5.00;;;11.40;81.10;;;;;;5073858;28;20053;-71
2022/11/07 06:17:16;;;;;;;12.45;4.20;;;11.40;81.30;;;;;;5068300;28;20048;-71
2022/11/07 06:19:41;;;;;;;7.13;3.33;;;11.40;81.30;;;;;;5058041;28;20086;-71
2022/11/07 06:22:07;;;;;;;12.93;4.10;;;11.40;81.40;;;;;;5074591;28;20039;-76
2022/11/07 06:24:33;;;;;;;7.85;3.45;;;11.40;81.40;;;;;;5057882;28;20172;-71
2022/11/07 06:26:59;;;;;;;12.40;5.03;;;11.40;81.50;;;;;;5057040;28;20119;-71
2022/11/07 06:29:24;;;;;;;13.63;4.10;;;11.40;81.60;;;;;;5073709;28;20067;-71
2022/11/07 06:31:50;;;;;;;12.55;4.93;;;11.40;81.60;;;;;;5057582;28;20047;-76
2022/11/07 06:34:16;;;;;;;7.82;4.20;;;11.40;81.70;;;;;;5063863;28;20037;-77
2022/11/07 06:36:41;;;;;;;15.60;4.88;;;11.50;81.80;;;;;;5075187;28;20517;-71
2022/11/07 06:39:07;;;;;;;9.82;4.30;;;11.50;81.80;;;;;;5061086;28;20036;-71
2022/11/07 06:41:32;;;;;;;12.93;5.15;;;11.50;81.90;;;;;;5060820;28;20403;-71
2022/11/07 06:43:58;;;;;;;10.27;4.50;;;11.50;81.90;;;;;;5056273;28;20518;-71
2022/11/07 06:46:24;;;;;;;16.75;5.60;;;11.50;82.00;;;;;;5067419;28;20044;-70
2022/11/07 06:48:50;;;;;;;9.27;4.30;;;11.50;82.00;;;;;;5059250;28;20449;-71
2022/11/07 06:51:15;;;;;;;10.70;5.22;;;11.50;82.00;;;;;;5045303;28;20048;-70
2022/11/07 06:53:41;;;;;;;13.13;5.35;;;11.50;82.00;;;;;;5058904;28;20032;-77
2022/11/07 06:56:11;;;;;;;10.80;5.43;;;11.50;82.00;;;;;;5077484;28;20068;-71
2022/11/07 06:58:36;;;;;;;18.60;6.32;;;11.50;82.00;;;;;;5076651;28;20452;-75
2022/11/07 07:01:04;;;;;;;12.95;5.78;;;11.50;82.00;;;;;;5077291;28;20118;-76
2022/11/07 07:03:30;;;;;;;12.38;5.53;;;11.50;82.00;;;;;;5060721;28;20127;-71
2022/11/07 07:06:00;;;;;;;13.48;6.30;;;11.60;82.10;;;;;;5077234;28;20457;-71
2022/11/07 07:08:26;;;;;;;13.63;6.32;;;11.60;82.10;;;;;;5068204;28;20043;-70
2022/11/07 07:10:52;;;;;;;15.93;6.28;;;11.60;82.00;;;;;;5077263;28;20046;-76
2022/11/07 07:13:17;;;;;;;16.50;6.30;;;11.60;82.10;;;;;;5059639;28;20075;-76
2022/11/07 07:15:52;;;;;;;12.88;6.53;;;11.50;82.00;;;;;;5077154;28;20051;-71
2022/11/07 07:18:18;;;;;;;14.20;6.00;;;11.60;82.20;;;;;;5077232;28;20035;-76
2022/11/07 07:20:44;;;;;;;17.60;7.05;;;11.60;82.20;;;;;;5073239;28;20450;-71
2022/11/07 07:23:10;;;;;;;13.63;6.32;;;11.60;82.10;;;;;;5073549;28;20041;-70
2022/11/07 07:25:35;;;;;;;14.60;6.22;;;11.60;82.10;;;;;;5073357;28;20075;-76
2022/11/07 07:28:01;;;;;;;13.30;6.15;;;11.60;82.00;;;;;;5056298;28;20125;-75
2022/11/07 07:30:27;;;;;;;16.63;6.90;;;11.60;82.00;;;;;;5070828;28;20044;-75
2022/11/07 07:32:52;;;;;;;17.40;7.43;;;11.70;82.00;;;;;;5060427;28;20525;-75
2022/11/07 07:35:18;;;;;;;13.10;5.40;;;11.70;82.00;;;;;;5072886;28;20471;-70
2022/11/07 07:37:48;;;;;;;14.55;6.05;;;11.70;82.00;;;;;;5048488;28;20374;-70
2022/11/07 07:40:14;;;;;;;16.15;7.00;;;11.70;82.40;;;;;;5062227;28;20041;-70
2022/11/07 07:42:42;;;;;;;14.48;6.10;;;11.70;81.90;;;;;;5063330;28;20150;-70
2022/11/07 07:45:09;;;;;;;16.10;6.20;;;11.70;81.80;;;;;;5058908;28;20475;-76
2022/11/07 07:47:35;;;;;;;13.20;5.25;;;11.80;81.90;;;;;;5064698;28;20040;-77
2022/11/07 07:50:01;;;;;;;16.45;6.03;;;11.80;81.80;;;;;;5054873;28;20037;-77
2022/11/07 07:52:26;;;;;;;13.85;5.07;;;11.80;81.80;;;;;;5051785;28;20047;-70
2022/11/07 07:54:53;;;;;;;14.02;5.25;;;11.80;81.80;;;;;;5062546;28;20063;-71
2022/11/07 07:57:18;;;;;;;15.27;5.45;;;11.80;81.70;;;;;;5052392;28;20033;-71
2022/11/07 07:59:44;;;;;;;15.95;5.30;;;11.90;81.70;;;;;;5044840;28;20047;-77
2022/11/07 08:02:11;;;;;;;18.65;6.55;;;11.90;81.60;;;;;;5035500;28;20037;-76
2022/11/07 08:04:36;;;;;;;12.95;5.82;;;11.90;81.60;;;;;;5058527;28;20044;-71
2022/11/07 08:07:02;;;;;;;14.30;5.72;;;11.90;81.50;;;;;;5044570;28;20052;-77
2022/11/07 08:09:35;;;;;;;19.48;5.80;;;11.90;81.40;;;;;;5057132;28;20039;-71
2022/11/07 08:12:02;;;;;;;12.85;5.60;;;12.00;81.40;;;;;;5041811;28;20082;-71
2022/11/07 08:14:28;;;;;;;14.35;5.15;;;12.00;81.40;;;;;;5064209;28;20099;-71
2022/11/07 08:16:53;;;;;;;11.60;5.13;;;12.00;81.40;;;;;;5034499;28;20044;-71
2022/11/07 08:19:19;;;;;;;19.55;5.88;;;12.00;81.30;;;;;;5059074;28;20040;-71
2022/11/07 08:21:44;;;;;;;13.27;4.70;;;12.00;81.20;;;;;;5067512;28;20053;-70
2022/11/07 08:24:10;;;;;;;14.57;5.20;;;12.10;81.30;;;;;;5049377;28;20040;-70
2022/11/07 08:26:36;;;;;;;15.73;4.60;;;12.10;81.20;;;;;;5052310;28;20033;-70
2022/11/07 08:29:02;;;;;;;16.58;4.82;;;12.10;81.20;;;;;;5060141;28;20036;-76
2022/11/07 08:31:28;;;;;;;13.57;4.88;;;12.10;81.10;;;;;;5065024;28;20052;-76
2022/11/07 08:33:57;;;;;;;13.10;4.60;;;12.10;81.00;;;;;;5060970;28;20495;-76
2022/11/07 08:36:23;;;;;;;10.65;4.03;;;12.20;81.00;;;;;;5063621;28;20111;-76
2022/11/07 08:38:49;;;;;;;14.40;4.97;;;12.20;80.90;;;;;;5055597;28;20476;-74
2022/11/07 08:41:15;;;;;;;12.85;4.47;;;12.20;80.80;;;;;;5069340;28;20041;-70
2022/11/07 08:43:40;;;;;;;14.95;4.75;;;12.30;80.80;;;;;;5071664;28;20404;-70
2022/11/07 08:46:06;;;;;;;11.60;3.53;;;12.30;80.60;;;;;;5069878;28;20036;-70
2022/11/07 08:48:32;;;;;;;13.00;5.22;;;12.30;80.50;;;;;;5054882;28;20047;-70
2022/11/07 08:51:00;;;;;;;11.32;5.00;;;12.30;80.50;;;;;;5067563;28;20649;-70
2022/11/07 08:53:25;;;;;;;14.35;5.03;;;12.30;80.50;;;;;;5060788;28;20043;-72
2022/11/07 08:55:51;;;;;;;13.07;4.95;;;12.30;80.60;;;;;;5071533;28;20395;-70
2022/11/07 08:58:18;;;;;;;11.13;4.35;;;12.30;80.60;;;;;;5071028;28;20054;-70
2022/11/07 09:00:43;;;;;;;11.65;4.55;;;12.40;80.70;;;;;;5070008;28;20100;-70
2022/11/07 09:03:13;;;;;;;14.75;4.18;;;12.30;80.50;;;;;;5071284;28;20037;-76
2022/11/07 09:05:39;;;;;;;12.40;4.53;;;12.40;80.50;;;;;;5071579;28;20047;-76
2022/11/07 09:08:05;;;;;;;13.57;4.57;;;12.40;80.50;;;;;;5054435;28;20123;-76
2022/11/07 09:10:31;;;;;;;12.10;3.83;;;12.40;80.40;;;;;;5071360;28;20087;-79
2022/11/07 09:12:57;;;;;;;9.93;3.78;;;12.40;80.40;;;;;;5055137;28;20041;-76
2022/11/07 09:15:22;;;;;;;12.27;3.65;;;12.40;80.40;;;;;;5051486;28;20059;-76
2022/11/07 09:17:49;;;;;;;9.48;3.72;;;12.40;80.20;;;;;;5066186;28;20057;-76
2022/11/07 09:20:15;;;;;;;13.68;3.78;;;12.50;80.30;;;;;;5068722;28;20497;-76
2022/11/07 09:22:41;;;;;;;11.77;3.88;;;12.50;80.20;;;;;;5071022;28;20094;-71
2022/11/07 09:25:08;;;;;;;15.23;3.88;;;12.50;80.60;;;;;;5071145;28;20040;-70
2022/11/07 09:27:33;;;;;;;13.18;3.78;;;12.50;80.20;;;;;;5038267;28;20045;-71
2022/11/07 09:29:59;;;;;;;13.20;4.40;;;12.60;80.30;;;;;;5070754;28;20154;-71
2022/11/07 09:32:25;;;;;;;9.00;3.65;;;12.60;80.30;;;;;;5071213;28;20056;-71
2022/11/07 09:34:51;;;;;;;12.70;3.97;;;12.60;80.30;;;;;;5065284;28;20036;-71
2022/11/07 09:37:16;;;;;;;12.35;3.33;;;12.60;80.20;;;;;;5071039;28;20484;-71
2022/11/07 09:39:44;;;;;;;16.67;3.80;;;12.60;80.20;;;;;;5071087;28;20036;-71
2022/11/07 09:42:15;;;;;;;14.07;4.07;;;12.70;80.20;;;;;;5054901;28;20044;-70
2022/11/07 09:45:01;;;;;;;14.65;4.00;;;12.70;80.10;;;;;;5070753;28;20033;-70
2022/11/07 09:47:37;;;;;;;13.18;3.42;;;12.80;80.10;;;;;;5050768;28;20059;-70
2022/11/07 09:50:11;;;;;;;12.20;4.28;;;12.80;80.20;;;;;;5065820;28;20047;-71
2022/11/07 09:52:47;;;;;;;11.60;3.55;;;12.80;80.30;;;;;;5071096;28;20041;-71
2022/11/07 09:55:19;;;;;;;13.40;3.97;;;12.80;80.50;;;;;;5061399;28;20040;-71
2022/11/07 09:57:46;;;;;;;12.05;4.07;;;12.80;80.70;;;;;;5066573;28;20403;-71
2022/11/07 10:00:18;;;;;;;9.90;3.35;;;12.80;80.70;;;;;;5061821;28;20025;-71
2022/11/07 10:02:55;;;;;;;10.23;4.05;;;12.90;80.80;;;;;;5061293;28;20064;-71
2022/11/07 10:05:41;;;;;;;10.93;3.70;;;12.90;80.80;;;;;;5071022;28;20119;-71
2022/11/07 10:08:33;;;;;;;13.05;4.13;;;12.90;80.80;;;;;;5053549;28;20094;-72
2022/11/07 10:11:07;;;;;;;13.48;3.42;;;12.90;80.80;;;;;;5071368;28;20044;-72
2022/11/07 10:13:36;;;;;;;13.93;4.32;;;13.00;80.80;;;;;;5074664;28;20033;-77
2022/11/07 10:16:13;;;;;;;11.07;4.30;;;13.00;80.70;;;;;;5074805;28;20040;-77
2022/11/07 10:19:03;;;;;;;12.60;3.70;;;13.00;80.60;;;;;;5074960;28;20045;-77
2022/11/07 10:21:53;;;;;;;17.33;4.38;;;13.00;80.50;;;;;;5074714;28;20139;-77
2022/11/07 10:24:48;;;;;;;13.02;4.43;;;13.10;80.50;;;;;;5074636;28;20044;-77
2022/11/07 10:27:14;;;;;;;;;;;13.10;80.40;;;;;;5051638;28;20508;-77
2022/11/07 10:29:51;;;;;;;11.35;3.55;;;13.10;80.20;;;;;;5057042;28;19923;-77
2022/11/07 10:32:34;;;;;;;10.85;3.25;;;13.10;80.40;;;;;;5074374;28;20051;-77
2022/11/07 10:35:26;;;;;;;10.45;2.92;;;13.20;80.40;;;;;;5074584;28;20053;-77
2022/11/07 10:37:54;;;;;;;8.18;2.83;;;13.20;80.10;;;;;;5049711;28;20037;-77
2022/11/07 10:40:20;;;;;;;14.80;3.75;;;13.20;80.20;;;;;;5037867;28;20542;-77
2022/11/07 10:42:47;;;;;;;12.90;3.15;;;13.30;80.10;;;;;;5070428;28;20502;-77
2022/11/07 10:45:16;;;;;;;14.43;3.75;;;13.30;80.00;;;;;;5070793;28;20119;-77
2022/11/07 10:47:53;;;;;;;11.85;3.50;;;13.40;79.80;;;;;;5060770;28;20036;-77
2022/11/07 10:50:21;;;;;;;10.98;3.20;;;13.40;79.70;;;;;;5054416;28;20515;-77
2022/11/07 10:53:00;;;;;;;12.95;3.35;;;13.40;79.70;;;;;;5073271;28;20048;-77
2022/11/07 10:55:27;;;;;;;9.40;2.83;;;13.50;79.70;;;;;;5074429;28;20103;-77
2022/11/07 10:57:58;;;;;;;11.65;3.60;;;13.50;79.60;;;;;;5074132;28;20039;-77
2022/11/07 11:00:38;;;;;;;7.90;3.10;;;13.50;79.60;;;;;;5074046;28;20047;-77
2022/11/07 11:03:15;;;;;;;11.25;3.20;;;13.60;79.40;;;;;;5057598;28;20083;-77
2022/11/07 11:05:43;;;;;;;13.63;3.55;;;13.60;79.30;;;;;;5073642;28;20180;-77
2022/11/07 11:08:20;;;;;;;8.00;3.50;;;13.60;79.30;;;;;;5061364;28;20044;-77
2022/11/07 11:10:46;;;;;;;10.10;3.20;;;13.70;79.20;;;;;;5064265;28;20102;-77
2022/11/07 11:13:29;;;;;;;9.82;3.35;;;13.70;79.10;;;;;;5070559;28;20400;-77
2022/11/07 11:16:07;;;;;;;17.55;3.53;;;13.80;78.80;;;;;;5071171;28;20047;-77
2022/11/07 11:18:32;;;;;;;10.10;3.10;;;13.80;78.90;;;;;;5074042;28;20483;-77
2022/11/07 11:21:01;;;;;;;9.50;2.60;;;13.80;78.80;;;;;;5056476;28;20059;-77
2022/11/07 11:23:30;;;;;;;13.25;3.33;;;13.80;78.60;;;;;;5061153;28;20036;-77
2022/11/07 11:26:08;;;;;;;9.82;3.05;;;13.90;78.60;;;;;;5073893;28;20461;-77
2022/11/07 11:28:43;;;;;;;9.07;2.63;;;13.90;78.50;;;;;;5037094;28;20041;-77
2022/11/07 11:31:18;;;;;;;10.00;3.42;;;13.90;78.40;;;;;;5063421;28;20044;-77
2022/11/07 11:33:49;;;;;;;7.82;2.72;;;14.00;78.30;;;;;;5073399;28;20074;-77
2022/11/07 11:36:18;;;;;;;10.15;3.03;;;14.00;78.30;;;;;;5073084;28;20036;-77
2022/11/07 11:38:53;;;;;;;11.65;3.53;;;14.00;78.20;;;;;;5068773;28;20480;-71
2022/11/07 11:41:34;;;;;;;14.52;4.10;;;14.00;78.10;;;;;;5071750;28;20131;-71
2022/11/07 11:44:13;;;;;;;11.35;3.20;;;14.00;77.90;;;;;;5056332;28;20044;-71
2022/11/07 11:46:47;;;;;;;6.93;2.17;;;14.10;78.10;;;;;;5072776;28;20075;-71
2022/11/07 11:49:31;;;;;;;9.77;3.40;;;14.10;77.90;;;;;;5072055;28;20506;-71
2022/11/07 11:52:07;;;;;;;11.53;2.57;;;14.10;77.80;;;;;;5072309;28;20036;-71
2022/11/07 11:54:33;;;;;;;10.85;2.95;;;14.10;77.80;;;;;;5072877;28;20279;-77
2022/11/07 11:57:22;;;;;;;12.77;2.80;;;14.10;77.80;;;;;;5072709;28;20038;-77
2022/11/07 12:00:06;;;;;;;11.32;3.53;;;14.20;77.90;;;;;;5073032;28;20089;-77
2022/11/07 12:02:55;;;;;;;6.25;2.30;;;14.20;77.50;;;;;;5072420;28;20525;-77
2022/11/07 12:05:45;;;;;;;9.60;3.28;;;14.20;77.40;;;;;;5072949;28;20127;-77
2022/11/07 12:08:10;;;;;;;8.75;2.55;;;14.20;77.30;;;;;;5073129;28;20515;-77
2022/11/07 12:10:51;;;;;;;13.90;3.40;;;14.20;77.40;;;;;;5072776;28;20047;-77
2022/11/07 12:13:48;;;;;;;9.77;2.60;;;14.30;77.20;;;;;;5072406;28;20040;-77
2022/11/07 12:16:26;;;;;;;8.13;2.67;;;14.30;76.90;;;;;;5072765;28;20044;-77
2022/11/07 12:19:02;;;;;;;9.63;2.90;;;14.30;77.10;;;;;;5072511;28;20093;-77
2022/11/07 12:21:33;;;;;;;7.47;2.70;;;14.40;77.20;;;;;;5072556;28;20056;-77
2022/11/07 12:24:23;;;;;;;12.02;3.22;;;14.40;77.20;;;;;;5072339;28;20048;-77
2022/11/07 12:27:14;;;;;;;13.35;3.20;;;14.40;77.20;;;;;;5072174;28;20052;-77
2022/11/07 12:30:20;;;;;;;10.38;3.15;;;14.40;77.60;;;;;;5058473;28;20115;-77
2022/11/07 12:32:57;;;;;;;9.25;2.40;;;14.40;77.00;;;;;;5072193;28;20052;-78
2022/11/07 12:35:49;;;;;;;10.15;2.75;;;14.40;76.90;;;;;;5070788;28;20502;-71
2022/11/07 12:38:29;;;;;;;13.93;3.35;;;14.50;76.70;;;;;;5071712;28;20098;-70
2022/11/07 12:41:01;;;;;;;11.88;3.80;;;14.50;77.00;;;;;;5071945;28;20040;-71
2022/11/07 12:43:50;;;;;;;11.10;3.72;;;14.50;77.00;;;;;;5072239;28;20383;-77
2022/11/07 12:46:28;;;;;;;9.70;3.20;;;14.50;76.90;;;;;;5055513;28;20040;-80
2022/11/07 12:48:58;;;;;;;10.70;3.10;;;14.50;77.00;;;;;;5055582;28;20093;-81
2022/11/07 12:51:37;;;;;;;10.13;3.47;;;14.50;77.00;;;;;;5071867;28;20127;-81
2022/11/07 12:54:21;;;;;;;13.98;3.53;;;14.50;76.90;;;;;;5072239;28;20043;-80
2022/11/07 12:56:48;;;;;;;9.27;2.83;;;14.60;76.90;;;;;;5050501;28;20396;-82
2022/11/07 12:59:31;;;;;;;14.32;3.40;;;14.50;76.80;;;;;;5068755;28;20052;-82
2022/11/07 13:02:12;;;;;;;12.45;2.90;;;14.60;76.70;;;;;;5068299;28;20048;-75
2022/11/07 13:04:41;;;;;;;11.73;3.13;;;14.60;76.70;;;;;;5072014;28;20144;-82